sensor_id;sensor_type;location;lat;lon;timestamp;P1;durP1;ratioP1;P2;durP2;ratioP2
67930;SDS011;63902;52.000;5.954;2023-11-19T00:00:28;11.82;;;9.00;;
67930;SDS011;63902;52.000;5.954;2023-11-19T00:01:29;18.00;;;9.55;;
67930;SDS011;63902;52.000;5.954;2023-11-19T00:02:29;11.98;;;9.95;;
67930;SDS011;63902;52.000;5.954;2023-11-19T00:03:31;18.90;;;9.52;;
67930;SDS011;63902;52.000;5.954;2023-11-19T00:04:31;26.75;;;9.85;;
67930;SDS011;63902;52.000;5.954;2023-11-19T00:05:32;15.52;;;8.98;;
67930;SDS011;63902;52.000;5.954;2023-11-19T00:06:32;20.17;;;9.73;;
67930;SDS011;63902;52.000;5.954;2023-11-19T00:07:33;16.50;;;10.18;;
67930;SDS011;63902;52.000;5.954;2023-11-19T00:08:33;20.25;;;10.27;;
67930;SDS011;63902;52.000;5.954;2023-11-19T00:09:34;14.23;;;9.50;;
67930;SDS011;63902;52.000;5.954;2023-11-19T00:10:34;14.43;;;9.73;;
67930;SDS011;63902;52.000;5.954;2023-11-19T00:11:34;16.90;;;9.98;;
67930;SDS011;63902;52.000;5.954;2023-11-19T00:12:36;15.75;;;9.45;;
67930;SDS011;63902;52.000;5.954;2023-11-19T00:13:37;15.80;;;9.95;;
67930;SDS011;63902;52.000;5.954;2023-11-19T00:14:37;14.57;;;10.07;;
67930;SDS011;63902;52.000;5.954;2023-11-19T00:15:38;18.38;;;10.13;;
67930;SDS011;63902;52.000;5.954;2023-11-19T00:16:38;17.13;;;9.90;;
67930;SDS011;63902;52.000;5.954;2023-11-19T00:17:39;23.52;;;10.07;;
67930;SDS011;63902;52.000;5.954;2023-11-19T00:18:41;17.42;;;9.98;;
67930;SDS011;63902;52.000;5.954;2023-11-19T00:19:41;21.70;;;9.88;;
67930;SDS011;63902;52.000;5.954;2023-11-19T00:20:41;19.33;;;9.35;;
67930;SDS011;63902;52.000;5.954;2023-11-19T00:21:42;13.32;;;8.93;;
67930;SDS011;63902;52.000;5.954;2023-11-19T00:22:42;14.18;;;9.15;;
67930;SDS011;63902;52.000;5.954;2023-11-19T00:23:43;21.77;;;9.88;;
67930;SDS011;63902;52.000;5.954;2023-11-19T00:24:44;15.50;;;9.02;;
67930;SDS011;63902;52.000;5.954;2023-11-19T00:25:44;13.65;;;8.98;;
67930;SDS011;63902;52.000;5.954;2023-11-19T00:26:44;15.88;;;9.48;;
67930;SDS011;63902;52.000;5.954;2023-11-19T00:27:45;19.65;;;9.57;;
67930;SDS011;63902;52.000;5.954;2023-11-19T00:28:45;15.15;;;9.20;;
67930;SDS011;63902;52.000;5.954;2023-11-19T00:29:46;23.83;;;9.38;;
67930;SDS011;63902;52.000;5.954;2023-11-19T00:30:46;15.77;;;8.80;;
67930;SDS011;63902;52.000;5.954;2023-11-19T00:31:47;15.65;;;8.70;;
67930;SDS011;63902;52.000;5.954;2023-11-19T00:32:47;18.40;;;10.07;;
67930;SDS011;63902;52.000;5.954;2023-11-19T00:33:49;13.10;;;8.27;;
67930;SDS011;63902;52.000;5.954;2023-11-19T00:34:49;14.93;;;8.15;;
67930;SDS011;63902;52.000;5.954;2023-11-19T00:35:50;18.33;;;8.98;;
67930;SDS011;63902;52.000;5.954;2023-11-19T00:36:50;13.63;;;9.38;;
67930;SDS011;63902;52.000;5.954;2023-11-19T00:37:52;12.75;;;9.30;;
67930;SDS011;63902;52.000;5.954;2023-11-19T00:38:52;16.45;;;9.00;;
67930;SDS011;63902;52.000;5.954;2023-11-19T00:39:53;13.50;;;8.70;;
67930;SDS011;63902;52.000;5.954;2023-11-19T00:40:53;17.40;;;9.20;;
67930;SDS011;63902;52.000;5.954;2023-11-19T00:41:54;18.20;;;9.85;;
67930;SDS011;63902;52.000;5.954;2023-11-19T00:42:54;18.10;;;8.77;;
67930;SDS011;63902;52.000;5.954;2023-11-19T00:43:54;15.30;;;8.68;;
67930;SDS011;63902;52.000;5.954;2023-11-19T00:44:55;18.58;;;8.48;;
67930;SDS011;63902;52.000;5.954;2023-11-19T00:45:55;16.75;;;8.23;;
67930;SDS011;63902;52.000;5.954;2023-11-19T00:46:56;16.48;;;8.88;;
67930;SDS011;63902;52.000;5.954;2023-11-19T00:47:56;15.65;;;7.88;;
67930;SDS011;63902;52.000;5.954;2023-11-19T00:48:58;18.38;;;8.02;;
67930;SDS011;63902;52.000;5.954;2023-11-19T00:49:58;18.20;;;7.78;;
67930;SDS011;63902;52.000;5.954;2023-11-19T00:50:59;18.00;;;8.10;;
67930;SDS011;63902;52.000;5.954;2023-11-19T00:51:59;15.93;;;7.80;;
67930;SDS011;63902;52.000;5.954;2023-11-19T00:53:00;12.38;;;7.10;;
67930;SDS011;63902;52.000;5.954;2023-11-19T00:54:00;15.18;;;7.35;;
67930;SDS011;63902;52.000;5.954;2023-11-19T00:55:01;13.10;;;7.30;;
67930;SDS011;63902;52.000;5.954;2023-11-19T00:56:01;18.63;;;7.90;;
67930;SDS011;63902;52.000;5.954;2023-11-19T00:57:02;13.88;;;7.28;;
67930;SDS011;63902;52.000;5.954;2023-11-19T00:58:03;14.93;;;6.88;;
67930;SDS011;63902;52.000;5.954;2023-11-19T00:59:03;16.02;;;6.97;;
67930;SDS011;63902;52.000;5.954;2023-11-19T01:00:04;11.38;;;6.57;;
67930;SDS011;63902;52.000;5.954;2023-11-19T01:01:06;17.65;;;6.97;;
67930;SDS011;63902;52.000;5.954;2023-11-19T01:02:06;12.52;;;5.50;;
67930;SDS011;63902;52.000;5.954;2023-11-19T01:03:07;20.35;;;6.32;;
67930;SDS011;63902;52.000;5.954;2023-11-19T01:04:08;11.80;;;5.25;;
67930;SDS011;63902;52.000;5.954;2023-11-19T01:05:09;10.18;;;5.18;;
67930;SDS011;63902;52.000;5.954;2023-11-19T01:06:09;20.65;;;5.50;;
67930;SDS011;63902;52.000;5.954;2023-11-19T01:07:10;11.30;;;4.63;;
67930;SDS011;63902;52.000;5.954;2023-11-19T01:08:10;18.17;;;6.25;;
67930;SDS011;63902;52.000;5.954;2023-11-19T01:09:11;15.73;;;5.25;;
67930;SDS011;63902;52.000;5.954;2023-11-19T01:10:11;14.23;;;5.50;;
67930;SDS011;63902;52.000;5.954;2023-11-19T01:11:19;11.10;;;4.65;;
67930;SDS011;63902;52.000;5.954;2023-11-19T01:12:20;21.08;;;4.93;;
67930;SDS011;63902;52.000;5.954;2023-11-19T01:13:20;10.88;;;4.80;;
67930;SDS011;63902;52.000;5.954;2023-11-19T01:14:21;15.18;;;5.28;;
67930;SDS011;63902;52.000;5.954;2023-11-19T01:15:21;11.07;;;4.53;;
67930;SDS011;63902;52.000;5.954;2023-11-19T01:16:22;10.85;;;4.15;;
67930;SDS011;63902;52.000;5.954;2023-11-19T01:17:22;15.85;;;5.35;;
67930;SDS011;63902;52.000;5.954;2023-11-19T01:18:23;19.85;;;4.70;;
67930;SDS011;63902;52.000;5.954;2023-11-19T01:19:25;12.85;;;4.70;;
67930;SDS011;63902;52.000;5.954;2023-11-19T01:20:25;16.95;;;4.75;;
67930;SDS011;63902;52.000;5.954;2023-11-19T01:21:26;15.63;;;4.65;;
67930;SDS011;63902;52.000;5.954;2023-11-19T01:22:26;15.93;;;4.55;;
67930;SDS011;63902;52.000;5.954;2023-11-19T01:23:27;12.20;;;4.68;;
67930;SDS011;63902;52.000;5.954;2023-11-19T01:24:27;17.95;;;4.43;;
67930;SDS011;63902;52.000;5.954;2023-11-19T01:25:28;15.15;;;4.38;;
67930;SDS011;63902;52.000;5.954;2023-11-19T01:26:28;16.40;;;4.22;;
67930;SDS011;63902;52.000;5.954;2023-11-19T01:27:29;23.95;;;4.28;;
67930;SDS011;63902;52.000;5.954;2023-11-19T01:28:29;15.98;;;4.03;;
67930;SDS011;63902;52.000;5.954;2023-11-19T01:29:29;20.90;;;3.78;;
67930;SDS011;63902;52.000;5.954;2023-11-19T01:30:30;10.80;;;3.63;;
67930;SDS011;63902;52.000;5.954;2023-11-19T01:31:30;16.63;;;3.90;;
67930;SDS011;63902;52.000;5.954;2023-11-19T01:32:31;23.30;;;4.70;;
67930;SDS011;63902;52.000;5.954;2023-11-19T01:33:32;17.45;;;4.15;;
67930;SDS011;63902;52.000;5.954;2023-11-19T01:34:34;13.88;;;3.42;;
67930;SDS011;63902;52.000;5.954;2023-11-19T01:35:34;15.48;;;3.67;;
67930;SDS011;63902;52.000;5.954;2023-11-19T01:36:35;13.32;;;3.15;;
67930;SDS011;63902;52.000;5.954;2023-11-19T01:37:35;22.55;;;3.55;;
67930;SDS011;63902;52.000;5.954;2023-11-19T01:38:36;11.07;;;3.17;;
67930;SDS011;63902;52.000;5.954;2023-11-19T01:39:36;13.48;;;3.65;;
67930;SDS011;63902;52.000;5.954;2023-11-19T01:40:36;14.27;;;3.35;;
67930;SDS011;63902;52.000;5.954;2023-11-19T01:41:37;19.90;;;3.78;;
67930;SDS011;63902;52.000;5.954;2023-11-19T01:42:38;11.50;;;3.22;;
67930;SDS011;63902;52.000;5.954;2023-11-19T01:43:39;18.60;;;4.80;;
67930;SDS011;63902;52.000;5.954;2023-11-19T01:44:39;13.57;;;3.20;;
67930;SDS011;63902;52.000;5.954;2023-11-19T01:45:40;10.75;;;3.65;;
67930;SDS011;63902;52.000;5.954;2023-11-19T01:46:40;25.88;;;3.78;;
67930;SDS011;63902;52.000;5.954;2023-11-19T01:47:42;13.48;;;3.08;;
67930;SDS011;63902;52.000;5.954;2023-11-19T01:48:43;25.45;;;4.18;;
67930;SDS011;63902;52.000;5.954;2023-11-19T01:49:47;14.23;;;3.25;;
67930;SDS011;63902;52.000;5.954;2023-11-19T01:50:47;15.40;;;3.13;;
67930;SDS011;63902;52.000;5.954;2023-11-19T01:51:48;15.18;;;2.97;;
67930;SDS011;63902;52.000;5.954;2023-11-19T01:52:49;14.13;;;3.70;;
67930;SDS011;63902;52.000;5.954;2023-11-19T01:53:50;18.45;;;4.18;;
67930;SDS011;63902;52.000;5.954;2023-11-19T01:54:51;19.25;;;3.80;;
67930;SDS011;63902;52.000;5.954;2023-11-19T01:55:53;11.88;;;3.15;;
67930;SDS011;63902;52.000;5.954;2023-11-19T01:56:54;16.27;;;3.75;;
67930;SDS011;63902;52.000;5.954;2023-11-19T01:57:58;11.70;;;3.08;;
67930;SDS011;63902;52.000;5.954;2023-11-19T01:59:01;24.85;;;3.92;;
67930;SDS011;63902;52.000;5.954;2023-11-19T02:00:03;12.10;;;3.75;;
67930;SDS011;63902;52.000;5.954;2023-11-19T02:01:04;18.73;;;4.20;;
67930;SDS011;63902;52.000;5.954;2023-11-19T02:02:05;25.45;;;3.40;;
67930;SDS011;63902;52.000;5.954;2023-11-19T02:03:06;19.13;;;3.63;;
67930;SDS011;63902;52.000;5.954;2023-11-19T02:04:07;20.35;;;4.18;;
67930;SDS011;63902;52.000;5.954;2023-11-19T02:05:10;23.02;;;4.38;;
67930;SDS011;63902;52.000;5.954;2023-11-19T02:06:11;16.13;;;3.47;;
67930;SDS011;63902;52.000;5.954;2023-11-19T02:07:12;22.08;;;3.67;;
67930;SDS011;63902;52.000;5.954;2023-11-19T02:08:13;16.23;;;3.00;;
67930;SDS011;63902;52.000;5.954;2023-11-19T02:09:13;17.88;;;3.75;;
67930;SDS011;63902;52.000;5.954;2023-11-19T02:10:14;15.77;;;3.05;;
67930;SDS011;63902;52.000;5.954;2023-11-19T02:11:14;12.25;;;3.20;;
67930;SDS011;63902;52.000;5.954;2023-11-19T02:12:15;17.35;;;3.35;;
67930;SDS011;63902;52.000;5.954;2023-11-19T02:13:15;17.75;;;3.88;;
67930;SDS011;63902;52.000;5.954;2023-11-19T02:14:16;20.85;;;3.60;;
67930;SDS011;63902;52.000;5.954;2023-11-19T02:15:17;16.65;;;3.47;;
67930;SDS011;63902;52.000;5.954;2023-11-19T02:16:18;16.02;;;3.08;;
67930;SDS011;63902;52.000;5.954;2023-11-19T02:17:27;18.58;;;3.83;;
67930;SDS011;63902;52.000;5.954;2023-11-19T02:18:28;11.02;;;3.38;;
67930;SDS011;63902;52.000;5.954;2023-11-19T02:19:28;16.80;;;2.92;;
67930;SDS011;63902;52.000;5.954;2023-11-19T02:20:30;9.50;;;2.85;;
67930;SDS011;63902;52.000;5.954;2023-11-19T02:21:31;18.70;;;4.15;;
67930;SDS011;63902;52.000;5.954;2023-11-19T02:22:31;18.17;;;3.45;;
67930;SDS011;63902;52.000;5.954;2023-11-19T02:23:31;19.02;;;3.13;;
67930;SDS011;63902;52.000;5.954;2023-11-19T02:24:33;11.65;;;2.65;;
67930;SDS011;63902;52.000;5.954;2023-11-19T02:25:33;14.65;;;3.35;;
67930;SDS011;63902;52.000;5.954;2023-11-19T02:26:37;17.27;;;3.72;;
67930;SDS011;63902;52.000;5.954;2023-11-19T02:27:46;18.15;;;2.97;;
67930;SDS011;63902;52.000;5.954;2023-11-19T02:28:51;22.05;;;4.63;;
67930;SDS011;63902;52.000;5.954;2023-11-19T02:29:51;12.75;;;3.05;;
67930;SDS011;63902;52.000;5.954;2023-11-19T02:30:52;13.43;;;2.78;;
67930;SDS011;63902;52.000;5.954;2023-11-19T02:31:52;17.98;;;3.00;;
67930;SDS011;63902;52.000;5.954;2023-11-19T02:32:53;16.60;;;3.20;;
67930;SDS011;63902;52.000;5.954;2023-11-19T02:33:53;14.55;;;2.72;;
67930;SDS011;63902;52.000;5.954;2023-11-19T02:34:54;17.88;;;3.35;;
67930;SDS011;63902;52.000;5.954;2023-11-19T02:35:54;16.38;;;2.85;;
67930;SDS011;63902;52.000;5.954;2023-11-19T02:36:55;18.58;;;3.08;;
67930;SDS011;63902;52.000;5.954;2023-11-19T02:37:55;17.95;;;2.90;;
67930;SDS011;63902;52.000;5.954;2023-11-19T02:38:56;22.02;;;4.15;;
67930;SDS011;63902;52.000;5.954;2023-11-19T02:39:56;19.85;;;2.95;;
67930;SDS011;63902;52.000;5.954;2023-11-19T02:40:57;10.48;;;2.78;;
67930;SDS011;63902;52.000;5.954;2023-11-19T02:41:57;12.70;;;2.80;;
67930;SDS011;63902;52.000;5.954;2023-11-19T02:42:59;22.58;;;3.55;;
67930;SDS011;63902;52.000;5.954;2023-11-19T02:44:00;14.48;;;2.45;;
67930;SDS011;63902;52.000;5.954;2023-11-19T02:45:00;17.27;;;3.38;;
67930;SDS011;63902;52.000;5.954;2023-11-19T02:46:01;23.55;;;3.30;;
67930;SDS011;63902;52.000;5.954;2023-11-19T02:47:01;15.00;;;3.42;;
67930;SDS011;63902;52.000;5.954;2023-11-19T02:48:02;24.63;;;3.70;;
67930;SDS011;63902;52.000;5.954;2023-11-19T02:49:04;21.42;;;3.55;;
67930;SDS011;63902;52.000;5.954;2023-11-19T02:50:05;21.75;;;4.05;;
67930;SDS011;63902;52.000;5.954;2023-11-19T02:51:06;21.45;;;3.08;;
67930;SDS011;63902;52.000;5.954;2023-11-19T02:52:07;16.75;;;3.05;;
67930;SDS011;63902;52.000;5.954;2023-11-19T02:53:07;18.00;;;3.03;;
67930;SDS011;63902;52.000;5.954;2023-11-19T02:54:08;18.23;;;4.22;;
67930;SDS011;63902;52.000;5.954;2023-11-19T02:55:09;21.02;;;2.92;;
67930;SDS011;63902;52.000;5.954;2023-11-19T02:56:10;20.42;;;3.45;;
67930;SDS011;63902;52.000;5.954;2023-11-19T02:57:10;15.27;;;3.15;;
67930;SDS011;63902;52.000;5.954;2023-11-19T02:58:12;21.65;;;4.32;;
67930;SDS011;63902;52.000;5.954;2023-11-19T02:59:13;24.50;;;3.53;;
67930;SDS011;63902;52.000;5.954;2023-11-19T03:00:14;19.17;;;3.60;;
67930;SDS011;63902;52.000;5.954;2023-11-19T03:01:21;24.25;;;3.58;;
67930;SDS011;63902;52.000;5.954;2023-11-19T03:02:21;25.83;;;3.15;;
67930;SDS011;63902;52.000;5.954;2023-11-19T03:03:22;30.30;;;3.53;;
67930;SDS011;63902;52.000;5.954;2023-11-19T03:04:23;27.88;;;3.58;;
67930;SDS011;63902;52.000;5.954;2023-11-19T03:05:24;25.88;;;3.55;;
67930;SDS011;63902;52.000;5.954;2023-11-19T03:06:26;12.77;;;3.10;;
67930;SDS011;63902;52.000;5.954;2023-11-19T03:07:27;22.70;;;3.08;;
67930;SDS011;63902;52.000;5.954;2023-11-19T03:08:27;22.33;;;3.08;;
67930;SDS011;63902;52.000;5.954;2023-11-19T03:09:28;28.77;;;3.53;;
67930;SDS011;63902;52.000;5.954;2023-11-19T03:10:28;16.92;;;3.13;;
67930;SDS011;63902;52.000;5.954;2023-11-19T03:11:29;17.98;;;3.72;;
67930;SDS011;63902;52.000;5.954;2023-11-19T03:12:29;23.33;;;3.03;;
67930;SDS011;63902;52.000;5.954;2023-11-19T03:13:31;24.63;;;3.58;;
67930;SDS011;63902;52.000;5.954;2023-11-19T03:14:32;17.95;;;2.95;;
67930;SDS011;63902;52.000;5.954;2023-11-19T03:15:33;25.02;;;3.63;;
67930;SDS011;63902;52.000;5.954;2023-11-19T03:16:33;19.45;;;3.15;;
67930;SDS011;63902;52.000;5.954;2023-11-19T03:17:34;20.15;;;2.95;;
67930;SDS011;63902;52.000;5.954;2023-11-19T03:18:34;23.95;;;3.15;;
67930;SDS011;63902;52.000;5.954;2023-11-19T03:19:35;32.22;;;3.60;;
67930;SDS011;63902;52.000;5.954;2023-11-19T03:20:35;21.52;;;3.58;;
67930;SDS011;63902;52.000;5.954;2023-11-19T03:21:36;21.35;;;3.22;;
67930;SDS011;63902;52.000;5.954;2023-11-19T03:22:36;23.52;;;3.85;;
67930;SDS011;63902;52.000;5.954;2023-11-19T03:23:37;23.05;;;4.22;;
67930;SDS011;63902;52.000;5.954;2023-11-19T03:24:37;23.25;;;3.53;;
67930;SDS011;63902;52.000;5.954;2023-11-19T03:25:38;22.08;;;3.53;;
67930;SDS011;63902;52.000;5.954;2023-11-19T03:26:38;23.83;;;4.32;;
67930;SDS011;63902;52.000;5.954;2023-11-19T03:27:39;22.05;;;4.05;;
67930;SDS011;63902;52.000;5.954;2023-11-19T03:28:41;29.17;;;3.80;;
67930;SDS011;63902;52.000;5.954;2023-11-19T03:29:41;24.73;;;4.38;;
67930;SDS011;63902;52.000;5.954;2023-11-19T03:30:41;19.35;;;4.07;;
67930;SDS011;63902;52.000;5.954;2023-11-19T03:31:42;14.13;;;3.05;;
67930;SDS011;63902;52.000;5.954;2023-11-19T03:32:42;26.90;;;4.05;;
67930;SDS011;63902;52.000;5.954;2023-11-19T03:33:43;22.40;;;3.75;;
67930;SDS011;63902;52.000;5.954;2023-11-19T03:34:43;19.38;;;2.97;;
67930;SDS011;63902;52.000;5.954;2023-11-19T03:35:44;27.70;;;4.30;;
67930;SDS011;63902;52.000;5.954;2023-11-19T03:36:44;26.35;;;4.35;;
67930;SDS011;63902;52.000;5.954;2023-11-19T03:37:45;22.95;;;3.40;;
67930;SDS011;63902;52.000;5.954;2023-11-19T03:38:45;27.80;;;4.13;;
67930;SDS011;63902;52.000;5.954;2023-11-19T03:39:46;34.22;;;4.68;;
67930;SDS011;63902;52.000;5.954;2023-11-19T03:40:46;20.58;;;4.60;;
67930;SDS011;63902;52.000;5.954;2023-11-19T03:41:46;29.25;;;4.13;;
67930;SDS011;63902;52.000;5.954;2023-11-19T03:42:47;19.33;;;3.83;;
67930;SDS011;63902;52.000;5.954;2023-11-19T03:43:51;28.58;;;4.00;;
67930;SDS011;63902;52.000;5.954;2023-11-19T03:44:52;20.17;;;3.92;;
67930;SDS011;63902;52.000;5.954;2023-11-19T03:45:52;26.42;;;4.38;;
67930;SDS011;63902;52.000;5.954;2023-11-19T03:46:53;19.08;;;3.30;;
67930;SDS011;63902;52.000;5.954;2023-11-19T03:47:53;21.60;;;3.67;;
67930;SDS011;63902;52.000;5.954;2023-11-19T03:48:54;26.13;;;4.15;;
67930;SDS011;63902;52.000;5.954;2023-11-19T03:49:54;28.33;;;4.18;;
67930;SDS011;63902;52.000;5.954;2023-11-19T03:50:54;32.38;;;4.85;;
67930;SDS011;63902;52.000;5.954;2023-11-19T03:51:55;25.17;;;4.43;;
67930;SDS011;63902;52.000;5.954;2023-11-19T03:52:55;27.65;;;5.07;;
67930;SDS011;63902;52.000;5.954;2023-11-19T03:53:56;30.45;;;4.47;;
67930;SDS011;63902;52.000;5.954;2023-11-19T03:54:56;26.08;;;5.97;;
67930;SDS011;63902;52.000;5.954;2023-11-19T03:55:57;29.80;;;5.22;;
67930;SDS011;63902;52.000;5.954;2023-11-19T03:56:57;30.80;;;5.70;;
67930;SDS011;63902;52.000;5.954;2023-11-19T03:57:58;21.83;;;4.03;;
67930;SDS011;63902;52.000;5.954;2023-11-19T03:58:59;24.23;;;4.47;;
67930;SDS011;63902;52.000;5.954;2023-11-19T04:00:00;19.27;;;4.63;;
67930;SDS011;63902;52.000;5.954;2023-11-19T04:01:00;22.90;;;5.15;;
67930;SDS011;63902;52.000;5.954;2023-11-19T04:02:01;29.95;;;5.55;;
67930;SDS011;63902;52.000;5.954;2023-11-19T04:03:02;25.08;;;4.35;;
67930;SDS011;63902;52.000;5.954;2023-11-19T04:04:02;29.17;;;4.78;;
67930;SDS011;63902;52.000;5.954;2023-11-19T04:05:03;23.42;;;4.57;;
67930;SDS011;63902;52.000;5.954;2023-11-19T04:06:05;32.45;;;5.35;;
67930;SDS011;63902;52.000;5.954;2023-11-19T04:07:06;30.45;;;4.25;;
67930;SDS011;63902;52.000;5.954;2023-11-19T04:08:06;22.27;;;4.32;;
67930;SDS011;63902;52.000;5.954;2023-11-19T04:09:07;37.72;;;6.00;;
67930;SDS011;63902;52.000;5.954;2023-11-19T04:10:07;32.95;;;4.45;;
67930;SDS011;63902;52.000;5.954;2023-11-19T04:11:08;30.30;;;5.38;;
67930;SDS011;63902;52.000;5.954;2023-11-19T04:12:08;24.20;;;3.67;;
67930;SDS011;63902;52.000;5.954;2023-11-19T04:13:09;19.42;;;5.28;;
67930;SDS011;63902;52.000;5.954;2023-11-19T04:14:11;27.92;;;5.35;;
67930;SDS011;63902;52.000;5.954;2023-11-19T04:15:12;31.33;;;4.47;;
67930;SDS011;63902;52.000;5.954;2023-11-19T04:16:12;27.65;;;4.18;;
67930;SDS011;63902;52.000;5.954;2023-11-19T04:17:13;31.80;;;4.40;;
67930;SDS011;63902;52.000;5.954;2023-11-19T04:18:13;30.95;;;4.78;;
67930;SDS011;63902;52.000;5.954;2023-11-19T04:19:14;21.23;;;3.30;;
67930;SDS011;63902;52.000;5.954;2023-11-19T04:20:14;19.13;;;3.30;;
67930;SDS011;63902;52.000;5.954;2023-11-19T04:21:15;32.30;;;3.72;;
67930;SDS011;63902;52.000;5.954;2023-11-19T04:22:15;31.00;;;4.28;;
67930;SDS011;63902;52.000;5.954;2023-11-19T04:23:15;28.98;;;4.80;;
67930;SDS011;63902;52.000;5.954;2023-11-19T04:24:16;27.33;;;4.55;;
67930;SDS011;63902;52.000;5.954;2023-11-19T04:25:16;26.27;;;5.30;;
67930;SDS011;63902;52.000;5.954;2023-11-19T04:26:17;29.05;;;3.92;;
67930;SDS011;63902;52.000;5.954;2023-11-19T04:27:17;29.48;;;3.95;;
67930;SDS011;63902;52.000;5.954;2023-11-19T04:28:18;27.17;;;4.13;;
67930;SDS011;63902;52.000;5.954;2023-11-19T04:29:20;25.30;;;3.85;;
67930;SDS011;63902;52.000;5.954;2023-11-19T04:30:20;27.08;;;4.30;;
67930;SDS011;63902;52.000;5.954;2023-11-19T04:31:21;31.73;;;4.45;;
67930;SDS011;63902;52.000;5.954;2023-11-19T04:32:21;69.93;;;6.57;;
67930;SDS011;63902;52.000;5.954;2023-11-19T04:33:22;22.95;;;3.70;;
67930;SDS011;63902;52.000;5.954;2023-11-19T04:34:22;23.77;;;4.07;;
67930;SDS011;63902;52.000;5.954;2023-11-19T04:35:22;35.03;;;4.57;;
67930;SDS011;63902;52.000;5.954;2023-11-19T04:36:23;20.58;;;3.95;;
67930;SDS011;63902;52.000;5.954;2023-11-19T04:37:23;28.75;;;4.68;;
67930;SDS011;63902;52.000;5.954;2023-11-19T04:38:24;27.00;;;4.15;;
67930;SDS011;63902;52.000;5.954;2023-11-19T04:39:25;26.70;;;3.95;;
67930;SDS011;63902;52.000;5.954;2023-11-19T04:40:26;22.83;;;5.07;;
67930;SDS011;63902;52.000;5.954;2023-11-19T04:41:26;21.38;;;4.00;;
67930;SDS011;63902;52.000;5.954;2023-11-19T04:42:27;32.75;;;4.80;;
67930;SDS011;63902;52.000;5.954;2023-11-19T04:43:27;25.98;;;3.85;;
67930;SDS011;63902;52.000;5.954;2023-11-19T04:44:29;27.25;;;4.78;;
67930;SDS011;63902;52.000;5.954;2023-11-19T04:45:30;30.67;;;4.15;;
67930;SDS011;63902;52.000;5.954;2023-11-19T04:46:30;28.27;;;5.13;;
67930;SDS011;63902;52.000;5.954;2023-11-19T04:47:30;21.35;;;3.30;;
67930;SDS011;63902;52.000;5.954;2023-11-19T04:48:31;34.35;;;5.45;;
67930;SDS011;63902;52.000;5.954;2023-11-19T04:49:31;22.25;;;3.65;;
67930;SDS011;63902;52.000;5.954;2023-11-19T04:50:32;19.63;;;2.80;;
67930;SDS011;63902;52.000;5.954;2023-11-19T04:51:37;30.40;;;4.10;;
67930;SDS011;63902;52.000;5.954;2023-11-19T04:52:38;24.73;;;4.20;;
67930;SDS011;63902;52.000;5.954;2023-11-19T04:53:39;22.10;;;4.78;;
67930;SDS011;63902;52.000;5.954;2023-11-19T04:54:42;36.22;;;3.65;;
67930;SDS011;63902;52.000;5.954;2023-11-19T04:55:43;25.38;;;4.68;;
67930;SDS011;63902;52.000;5.954;2023-11-19T04:56:45;32.58;;;5.70;;
67930;SDS011;63902;52.000;5.954;2023-11-19T04:57:45;25.85;;;4.20;;
67930;SDS011;63902;52.000;5.954;2023-11-19T04:58:46;22.85;;;3.85;;
67930;SDS011;63902;52.000;5.954;2023-11-19T04:59:48;28.00;;;4.22;;
67930;SDS011;63902;52.000;5.954;2023-11-19T05:00:48;27.73;;;4.68;;
67930;SDS011;63902;52.000;5.954;2023-11-19T05:01:49;27.50;;;4.82;;
67930;SDS011;63902;52.000;5.954;2023-11-19T05:02:49;31.65;;;4.40;;
67930;SDS011;63902;52.000;5.954;2023-11-19T05:03:50;27.58;;;4.03;;
67930;SDS011;63902;52.000;5.954;2023-11-19T05:04:50;23.13;;;4.43;;
67930;SDS011;63902;52.000;5.954;2023-11-19T05:05:51;36.65;;;5.38;;
67930;SDS011;63902;52.000;5.954;2023-11-19T05:06:51;32.13;;;4.15;;
67930;SDS011;63902;52.000;5.954;2023-11-19T05:07:52;20.92;;;3.70;;
67930;SDS011;63902;52.000;5.954;2023-11-19T05:08:52;29.05;;;5.00;;
67930;SDS011;63902;52.000;5.954;2023-11-19T05:09:53;24.92;;;4.07;;
67930;SDS011;63902;52.000;5.954;2023-11-19T05:10:53;29.60;;;3.88;;
67930;SDS011;63902;52.000;5.954;2023-11-19T05:11:53;31.15;;;4.43;;
67930;SDS011;63902;52.000;5.954;2023-11-19T05:12:54;39.60;;;5.28;;
67930;SDS011;63902;52.000;5.954;2023-11-19T05:13:54;28.83;;;3.22;;
67930;SDS011;63902;52.000;5.954;2023-11-19T05:14:56;32.65;;;4.90;;
67930;SDS011;63902;52.000;5.954;2023-11-19T05:15:57;30.85;;;4.65;;
67930;SDS011;63902;52.000;5.954;2023-11-19T05:16:57;24.70;;;3.55;;
67930;SDS011;63902;52.000;5.954;2023-11-19T05:17:58;31.63;;;4.50;;
67930;SDS011;63902;52.000;5.954;2023-11-19T05:18:58;25.77;;;4.03;;
67930;SDS011;63902;52.000;5.954;2023-11-19T05:19:58;35.42;;;5.35;;
67930;SDS011;63902;52.000;5.954;2023-11-19T05:20:59;18.40;;;3.22;;
67930;SDS011;63902;52.000;5.954;2023-11-19T05:21:59;42.92;;;5.97;;
67930;SDS011;63902;52.000;5.954;2023-11-19T05:23:00;30.23;;;4.63;;
67930;SDS011;63902;52.000;5.954;2023-11-19T05:24:00;27.67;;;3.90;;
67930;SDS011;63902;52.000;5.954;2023-11-19T05:25:01;26.90;;;3.85;;
67930;SDS011;63902;52.000;5.954;2023-11-19T05:26:01;28.40;;;4.65;;
67930;SDS011;63902;52.000;5.954;2023-11-19T05:27:02;18.55;;;3.88;;
67930;SDS011;63902;52.000;5.954;2023-11-19T05:28:03;28.15;;;4.20;;
67930;SDS011;63902;52.000;5.954;2023-11-19T05:29:03;36.17;;;5.55;;
67930;SDS011;63902;52.000;5.954;2023-11-19T05:30:06;30.50;;;4.85;;
67930;SDS011;63902;52.000;5.954;2023-11-19T05:31:07;22.50;;;4.70;;
67930;SDS011;63902;52.000;5.954;2023-11-19T05:32:08;19.73;;;3.55;;
67930;SDS011;63902;52.000;5.954;2023-11-19T05:33:08;28.20;;;4.35;;
67930;SDS011;63902;52.000;5.954;2023-11-19T05:34:09;27.13;;;5.03;;
67930;SDS011;63902;52.000;5.954;2023-11-19T05:35:09;33.15;;;5.13;;
67930;SDS011;63902;52.000;5.954;2023-11-19T05:36:11;23.17;;;3.75;;
67930;SDS011;63902;52.000;5.954;2023-11-19T05:37:12;23.08;;;4.30;;
67930;SDS011;63902;52.000;5.954;2023-11-19T05:38:13;35.90;;;4.97;;
67930;SDS011;63902;52.000;5.954;2023-11-19T05:39:13;25.33;;;4.13;;
67930;SDS011;63902;52.000;5.954;2023-11-19T05:40:14;30.58;;;5.03;;
67930;SDS011;63902;52.000;5.954;2023-11-19T05:41:14;23.10;;;3.85;;
67930;SDS011;63902;52.000;5.954;2023-11-19T05:42:15;36.95;;;4.47;;
67930;SDS011;63902;52.000;5.954;2023-11-19T05:43:15;30.33;;;3.58;;
67930;SDS011;63902;52.000;5.954;2023-11-19T05:44:16;27.02;;;3.92;;
67930;SDS011;63902;52.000;5.954;2023-11-19T05:45:19;25.15;;;3.90;;
67930;SDS011;63902;52.000;5.954;2023-11-19T05:46:19;27.40;;;3.97;;
67930;SDS011;63902;52.000;5.954;2023-11-19T05:47:19;21.35;;;3.85;;
67930;SDS011;63902;52.000;5.954;2023-11-19T05:48:20;25.45;;;3.97;;
67930;SDS011;63902;52.000;5.954;2023-11-19T05:49:20;31.95;;;4.25;;
67930;SDS011;63902;52.000;5.954;2023-11-19T05:50:21;30.13;;;5.22;;
67930;SDS011;63902;52.000;5.954;2023-11-19T05:51:21;31.45;;;4.25;;
67930;SDS011;63902;52.000;5.954;2023-11-19T05:52:22;33.15;;;5.07;;
67930;SDS011;63902;52.000;5.954;2023-11-19T05:53:22;24.98;;;3.65;;
67930;SDS011;63902;52.000;5.954;2023-11-19T05:54:23;29.50;;;4.03;;
67930;SDS011;63902;52.000;5.954;2023-11-19T05:55:23;28.83;;;4.25;;
67930;SDS011;63902;52.000;5.954;2023-11-19T05:56:24;23.58;;;3.90;;
67930;SDS011;63902;52.000;5.954;2023-11-19T05:57:24;19.15;;;4.35;;
67930;SDS011;63902;52.000;5.954;2023-11-19T05:58:25;24.92;;;4.97;;
67930;SDS011;63902;52.000;5.954;2023-11-19T05:59:26;35.60;;;5.05;;
67930;SDS011;63902;52.000;5.954;2023-11-19T06:00:28;29.58;;;3.50;;